Etusivu
METAR-TAF:

METAR-TAF

Lentoasemat :

Adana, Turkki

Leveyspiiri: 36-59N, Pituuspiiri: 035-18E, korkeus merenpinnasta: 20 m

Tämänhetkinen sää

Tämä raportti tehtiin 34 minuuttia sitten, kello 10.50 UTC
Tuuli 2 kn eri suunnista
Lämpötila 20°C
Kosteus 53%
Ilmanpaine 1020 hPa
Näkyvyys 10 km tai enemmän
Hajanaisia pilviä 3500 ft:n korkeudessa

METAR: LTAF 141050Z VRB02KT 9999 SCT035 20/10 Q1020 NOSIG RMK RWY23 24004KT

Aika: 14:24 (11:24 UTC)


TAF: puuttuu

Säähavainnot ja -ennusteet yli 4000 lentoasemalta (METAR- ja TAF-raportit).

Käytössä olevat sääasemat on merkitty karttaan keltaisilla ja punaisilla pisteillä.

Aseta hiiri pisteen päälle nähdäksesi sääaseman nimen.

Klikkaa sitten nähdäksesi säähavainnot ja -ennusteet.

Kartan vaihtaminen: klikkaa mustalla rastilla varustettuja vihreitä pisteitä, niin voit zoomata sisään; viivalla varustettua vihreää pistettä, niin voit zoomata ulos tai vihreitä nuolia, niin pääset viereisille kartoille.


METAR-TAF: